WXM80 ListenWXM80 Stop

You find our weather info also at:

UK Metoffice

WeatherCloud

Weather Underground

Northeastern Weather Network

AWEKAS

Citizen Weather Observer Program (CWOP)

HAMweather, WeatherForYou, PWS Weather


Weather Underground History page Text

Daily Summary for September 27, 2017 Units:  Both    English   Metric
« Previous Day
Next Day »
Daily Weekly Monthly Yearly Custom
  High: Low: Average:
Temperature: 79.6 °F /  26.4 °C 67.0 °F /  19.4 °C 72.6 °F /  22.6 °C
Dew Point: 74.6 °F /  23.7 °C 64.7 °F /  18.2 °C 70.5 °F /  21.4 °C
Humidity: 98 % 84 % 93 %
Wind Speed: 4.6 mph /  7.4 km/h - 0.6 mph /  1 km/h
Wind Gust: 8.1 mph /  13 km/h - -
Wind:- - ENE
Pressure: 29.85 in /  1010.7 hPa 29.63 in /  1003.3 hPa -
Precipitation: 0.00 in /  0 mm    
Historical Graphs
 
 
Tabular Data for September 27, 2017
Time Temperature Dew Point Pressure Wind Wind Speed Wind Gust Humidity Rainfall Rate (Hourly)
00:02 67.6 °F /  19.8 °C 64.9 °F /  18.3 °C 29.85 in /  1010.7 hPa Calm     91 % 0.00 in /  0 mm
00:07 67.6 °F /  19.8 °C 65.2 °F /  18.4 °C 29.85 in /  1010.7 hPa Calm     92 % 0.00 in /  0 mm
00:12 67.5 °F /  19.7 °C 65.1 °F /  18.4 °C 29.85 in /  1010.7 hPa Calm     92 % 0.00 in /  0 mm
00:17 67.4 °F /  19.7 °C 65.0 °F /  18.3 °C 29.85 in /  1010.7 hPa Calm     92 % 0.00 in /  0 mm
00:22 67.4 °F /  19.7 °C 65.0 °F /  18.3 °C 29.85 in /  1010.7 hPa Calm     92 % 0.00 in /  0 mm
00:27 67.3 °F /  19.6 °C 64.9 °F /  18.3 °C 29.85 in /  1010.7 hPa Calm     92 % 0.00 in /  0 mm
00:32 67.2 °F /  19.6 °C 64.8 °F /  18.2 °C 29.84 in /  1010.4 hPa Calm     92 % 0.00 in /  0 mm
00:37 67.1 °F /  19.5 °C 64.7 °F /  18.2 °C 29.85 in /  1010.7 hPa Calm     92 % 0.00 in /  0 mm
00:42 67.1 °F /  19.5 °C 64.7 °F /  18.2 °C 29.84 in /  1010.4 hPa Calm     92 % 0.00 in /  0 mm
00:47 67.1 °F /  19.5 °C 65.0 °F /  18.3 °C 29.84 in /  1010.4 hPa Calm     93 % 0.00 in /  0 mm
00:48 67.0 °F /  19.4 °C 64.9 °F /  18.3 °C 29.84 in /  1010.4 hPa Calm     93 % 0.00 in /  0 mm
00:53 67.0 °F /  19.4 °C 64.9 °F /  18.3 °C 29.84 in /  1010.4 hPa Calm     93 % 0.00 in /  0 mm
00:58 67.1 °F /  19.5 °C 65.0 °F /  18.3 °C 29.84 in /  1010.4 hPa Calm     93 % 0.00 in /  0 mm
01:03 67.0 °F /  19.4 °C 65.2 °F /  18.4 °C 29.84 in /  1010.4 hPa Calm     94 % 0.00 in /  0 mm
01:08 67.0 °F /  19.4 °C 65.2 °F /  18.4 °C 29.84 in /  1010.4 hPa SE 0.2 mph /  0.3 km/h   94 % 0.00 in /  0 mm
01:13 67.0 °F /  19.4 °C 65.2 °F /  18.4 °C 29.84 in /  1010.4 hPa Calm     94 % 0.00 in /  0 mm
01:18 67.1 °F /  19.5 °C 65.3 °F /  18.5 °C 29.84 in /  1010.4 hPa Calm     94 % 0.00 in /  0 mm
01:23 67.1 °F /  19.5 °C 65.3 °F /  18.5 °C 29.84 in /  1010.4 hPa SE 0.3 mph /  0.5 km/h 1.2 mph /  1.9 km/h 94 % 0.00 in /  0 mm
01:28 67.1 °F /  19.5 °C 65.3 °F /  18.5 °C 29.83 in /  1010 hPa North 0.9 mph /  1.4 km/h 2.0 mph /  3.2 km/h 94 % 0.00 in /  0 mm
01:33 67.2 °F /  19.6 °C 65.7 °F /  18.7 °C 29.84 in /  1010.4 hPa North 0.3 mph /  0.5 km/h 1.2 mph /  1.9 km/h 95 % 0.00 in /  0 mm
01:39 67.3 °F /  19.6 °C 65.8 °F /  18.8 °C 29.83 in /  1010 hPa North 0.4 mph /  0.6 km/h 3.5 mph /  5.6 km/h 95 % 0.00 in /  0 mm
01:44 67.4 °F /  19.7 °C 65.9 °F /  18.8 °C 29.84 in /  1010.4 hPa Calm   2.3 mph /  3.7 km/h 95 % 0.00 in /  0 mm
01:49 67.6 °F /  19.8 °C 66.4 °F /  19.1 °C 29.84 in /  1010.4 hPa NNE 0.7 mph /  1.1 km/h 3.5 mph /  5.6 km/h 96 % 0.00 in /  0 mm
01:54 67.7 °F /  19.8 °C 66.5 °F /  19.2 °C 29.84 in /  1010.4 hPa Calm     96 % 0.00 in /  0 mm
01:59 67.8 °F /  19.9 °C 66.6 °F /  19.2 °C 29.83 in /  1010 hPa NNE 1.4 mph /  2.3 km/h 3.5 mph /  5.6 km/h 96 % 0.00 in /  0 mm
02:04 67.9 °F /  19.9 °C 66.7 °F /  19.3 °C 29.84 in /  1010.4 hPa Calm     96 % 0.00 in /  0 mm
02:09 67.9 °F /  19.9 °C 66.7 °F /  19.3 °C 29.84 in /  1010.4 hPa Calm     96 % 0.00 in /  0 mm
02:14 67.9 °F /  19.9 °C 66.7 °F /  19.3 °C 29.83 in /  1010 hPa Calm     96 % 0.00 in /  0 mm
02:19 67.9 °F /  19.9 °C 66.7 °F /  19.3 °C 29.83 in /  1010 hPa Calm     96 % 0.00 in /  0 mm
02:24 67.9 °F /  19.9 °C 66.7 °F /  19.3 °C 29.83 in /  1010 hPa Calm     96 % 0.00 in /  0 mm
02:30 67.9 °F /  19.9 °C 66.7 °F /  19.3 °C 29.83 in /  1010 hPa Calm     96 % 0.00 in /  0 mm
02:35 67.9 °F /  19.9 °C 66.7 °F /  19.3 °C 29.83 in /  1010 hPa Calm     96 % 0.00 in /  0 mm
02:40 67.9 °F /  19.9 °C 66.7 °F /  19.3 °C 29.84 in /  1010.4 hPa Calm     96 % 0.00 in /  0 mm
02:45 67.9 °F /  19.9 °C 66.7 °F /  19.3 °C 29.83 in /  1010 hPa Calm     96 % 0.00 in /  0 mm
02:50 67.9 °F /  19.9 °C 66.7 °F /  19.3 °C 29.83 in /  1010 hPa Calm     96 % 0.00 in /  0 mm
02:55 67.9 °F /  19.9 °C 66.7 °F /  19.3 °C 29.83 in /  1010 hPa Calm     96 % 0.00 in /  0 mm
03:00 67.9 °F /  19.9 °C 66.7 °F /  19.3 °C 29.83 in /  1010 hPa Calm     96 % 0.00 in /  0 mm
03:05 67.9 °F /  19.9 °C 66.7 °F /  19.3 °C 29.83 in /  1010 hPa Calm     96 % 0.00 in /  0 mm
03:10 67.9 °F /  19.9 °C 66.7 °F /  19.3 °C 29.83 in /  1010 hPa Calm     96 % 0.00 in /  0 mm
03:15 67.8 °F /  19.9 °C 66.6 °F /  19.2 °C 29.83 in /  1010 hPa Calm     96 % 0.00 in /  0 mm
03:20 67.8 °F /  19.9 °C 66.6 °F /  19.2 °C 29.83 in /  1010 hPa Calm     96 % 0.00 in /  0 mm
03:26 67.8 °F /  19.9 °C 66.6 °F /  19.2 °C 29.82 in /  1009.7 hPa Calm     96 % 0.00 in /  0 mm
03:31 67.7 °F /  19.8 °C 66.2 °F /  19 °C 29.82 in /  1009.7 hPa Calm   1.0 mph /  1.6 km/h 95 % 0.00 in /  0 mm
03:33 67.7 °F /  19.8 °C 66.2 °F /  19 °C 29.82 in /  1009.7 hPa NNE 0.2 mph /  0.3 km/h 1.2 mph /  1.9 km/h 95 % 0.00 in /  0 mm
03:39 67.6 °F /  19.8 °C 66.1 °F /  18.9 °C 29.82 in /  1009.7 hPa Calm     95 % 0.00 in /  0 mm
03:44 67.6 °F /  19.8 °C 66.1 °F /  18.9 °C 29.82 in /  1009.7 hPa Calm     95 % 0.00 in /  0 mm
03:49 67.5 °F /  19.7 °C 66.0 °F /  18.9 °C 29.82 in /  1009.7 hPa Calm     95 % 0.00 in /  0 mm
03:54 67.5 °F /  19.7 °C 66.0 °F /  18.9 °C 29.82 in /  1009.7 hPa Calm     95 % 0.00 in /  0 mm
03:59 67.4 °F /  19.7 °C 65.9 °F /  18.8 °C 29.82 in /  1009.7 hPa Calm     95 % 0.00 in /  0 mm
04:04 67.4 °F /  19.7 °C 65.9 °F /  18.8 °C 29.82 in /  1009.7 hPa Calm     95 % 0.00 in /  0 mm
04:09 67.3 °F /  19.6 °C 65.8 °F /  18.8 °C 29.82 in /  1009.7 hPa Calm     95 % 0.00 in /  0 mm
04:14 67.3 °F /  19.6 °C 65.8 °F /  18.8 °C 29.82 in /  1009.7 hPa Calm     95 % 0.00 in /  0 mm
04:19 67.3 °F /  19.6 °C 65.8 °F /  18.8 °C 29.82 in /  1009.7 hPa Calm     95 % 0.00 in /  0 mm
04:24 67.2 °F /  19.6 °C 65.7 °F /  18.7 °C 29.82 in /  1009.7 hPa Calm     95 % 0.00 in /  0 mm
04:29 67.2 °F /  19.6 °C 66.0 °F /  18.9 °C 29.82 in /  1009.7 hPa Calm     96 % 0.00 in /  0 mm
04:34 67.2 °F /  19.6 °C 66.0 °F /  18.9 °C 29.81 in /  1009.4 hPa Calm     96 % 0.00 in /  0 mm
04:39 67.2 °F /  19.6 °C 66.0 °F /  18.9 °C 29.81 in /  1009.4 hPa NNE 0.1 mph /  0.2 km/h 1.2 mph /  1.9 km/h 96 % 0.00 in /  0 mm
04:44 67.3 °F /  19.6 °C 66.1 °F /  18.9 °C 29.82 in /  1009.7 hPa Calm     96 % 0.00 in /  0 mm
04:49 67.4 °F /  19.7 °C 66.2 °F /  19 °C 29.81 in /  1009.4 hPa Calm     96 % 0.00 in /  0 mm
04:54 67.4 °F /  19.7 °C 66.2 °F /  19 °C 29.81 in /  1009.4 hPa Calm     96 % 0.00 in /  0 mm
04:59 67.4 °F /  19.7 °C 66.2 °F /  19 °C 29.81 in /  1009.4 hPa NNE 0.1 mph /  0.2 km/h 1.2 mph /  1.9 km/h 96 % 0.00 in /  0 mm
05:04 67.6 °F /  19.8 °C 66.4 °F /  19.1 °C 29.81 in /  1009.4 hPa NNE 0.3 mph /  0.5 km/h 2.3 mph /  3.7 km/h 96 % 0.00 in /  0 mm
05:06 67.5 °F /  19.7 °C 66.3 °F /  19.1 °C 29.81 in /  1009.4 hPa Calm   2.0 mph /  3.2 km/h 96 % 0.00 in /  0 mm
05:11 67.6 °F /  19.8 °C 66.4 °F /  19.1 °C 29.81 in /  1009.4 hPa Calm     96 % 0.00 in /  0 mm
05:15 67.8 °F /  19.9 °C 66.9 °F /  19.4 °C 29.81 in /  1009.4 hPa Calm     97 % 0.00 in /  0 mm
05:18 67.9 °F /  19.9 °C 67.0 °F /  19.4 °C 29.81 in /  1009.4 hPa Calm     97 % 0.00 in /  0 mm
05:23 68.2 °F /  20.1 °C 67.3 °F /  19.6 °C 29.81 in /  1009.4 hPa NNE 0.1 mph /  0.2 km/h 1.2 mph /  1.9 km/h 97 % 0.00 in /  0 mm
05:28 68.6 °F /  20.3 °C 67.7 °F /  19.8 °C 29.81 in /  1009.4 hPa NE 1.0 mph /  1.6 km/h 3.5 mph /  5.6 km/h 97 % 0.00 in /  0 mm
05:33 69.1 °F /  20.6 °C 68.5 °F /  20.3 °C 29.81 in /  1009.4 hPa NE 0.1 mph /  0.2 km/h 1.2 mph /  1.9 km/h 98 % 0.00 in /  0 mm
05:38 69.4 °F /  20.8 °C 68.5 °F /  20.3 °C 29.81 in /  1009.4 hPa NE 0.6 mph /  1 km/h 2.3 mph /  3.7 km/h 97 % 0.00 in /  0 mm
05:43 69.7 °F /  20.9 °C 68.8 °F /  20.4 °C 29.81 in /  1009.4 hPa ENE 0.5 mph /  0.8 km/h 4.0 mph /  6.4 km/h 97 % 0.00 in /  0 mm
05:48 69.8 °F /  21 °C 69.2 °F /  20.7 °C 29.81 in /  1009.4 hPa ENE 1.6 mph /  2.6 km/h 3.5 mph /  5.6 km/h 98 % 0.00 in /  0 mm
05:53 69.9 °F /  21.1 °C 69.3 °F /  20.7 °C 29.81 in /  1009.4 hPa Calm   1.2 mph /  1.9 km/h 98 % 0.00 in /  0 mm
05:58 69.9 °F /  21.1 °C 69.3 °F /  20.7 °C 29.81 in /  1009.4 hPa Calm     98 % 0.00 in /  0 mm
06:03 70.0 °F /  21.1 °C 69.4 °F /  20.8 °C 29.81 in /  1009.4 hPa Calm   1.0 mph /  1.6 km/h 98 % 0.00 in /  0 mm
06:08 70.1 °F /  21.2 °C 69.2 °F /  20.7 °C 29.81 in /  1009.4 hPa Calm   1.2 mph /  1.9 km/h 97 % 0.00 in /  0 mm
06:13 70.1 °F /  21.2 °C 69.2 °F /  20.7 °C 29.81 in /  1009.4 hPa Calm   1.2 mph /  1.9 km/h 97 % 0.00 in /  0 mm
06:18 70.1 °F /  21.2 °C 69.2 °F /  20.7 °C 29.81 in /  1009.4 hPa ENE 0.2 mph /  0.3 km/h 1.2 mph /  1.9 km/h 97 % 0.00 in /  0 mm
06:23 70.1 °F /  21.2 °C 69.2 °F /  20.7 °C 29.82 in /  1009.7 hPa Calm   1.2 mph /  1.9 km/h 97 % 0.00 in /  0 mm
06:29 70.1 °F /  21.2 °C 69.2 °F /  20.7 °C 29.82 in /  1009.7 hPa ENE 0.3 mph /  0.5 km/h 1.2 mph /  1.9 km/h 97 % 0.00 in /  0 mm
06:30 70.1 °F /  21.2 °C 69.2 °F /  20.7 °C 29.82 in /  1009.7 hPa NE 0.8 mph /  1.3 km/h 3.5 mph /  5.6 km/h 97 % 0.00 in /  0 mm
06:35 70.2 °F /  21.2 °C 69.3 °F /  20.7 °C 29.82 in /  1009.7 hPa Calm     97 % 0.00 in /  0 mm
06:40 70.2 °F /  21.2 °C 69.3 °F /  20.7 °C 29.82 in /  1009.7 hPa ENE 1.5 mph /  2.4 km/h 3.5 mph /  5.6 km/h 97 % 0.00 in /  0 mm
06:45 70.2 °F /  21.2 °C 69.3 °F /  20.7 °C 29.82 in /  1009.7 hPa Calm   2.3 mph /  3.7 km/h 97 % 0.00 in /  0 mm
06:50 70.2 °F /  21.2 °C 69.3 °F /  20.7 °C 29.82 in /  1009.7 hPa ENE 0.4 mph /  0.6 km/h 2.3 mph /  3.7 km/h 97 % 0.00 in /  0 mm
06:56 70.3 °F /  21.3 °C 69.4 °F /  20.8 °C 29.82 in /  1009.7 hPa Calm   1.2 mph /  1.9 km/h 97 % 0.00 in /  0 mm
07:01 70.3 °F /  21.3 °C 69.4 °F /  20.8 °C 29.82 in /  1009.7 hPa ENE 0.4 mph /  0.6 km/h 1.2 mph /  1.9 km/h 97 % 0.00 in /  0 mm
07:06 70.3 °F /  21.3 °C 69.4 °F /  20.8 °C 29.83 in /  1010 hPa Calm   4.0 mph /  6.4 km/h 97 % 0.00 in /  0 mm
07:11 70.4 °F /  21.3 °C 69.5 °F /  20.8 °C 29.82 in /  1009.7 hPa NE 0.2 mph /  0.3 km/h 3.5 mph /  5.6 km/h 97 % 0.00 in /  0 mm
07:15 70.3 °F /  21.3 °C 69.4 °F /  20.8 °C 29.82 in /  1009.7 hPa ENE 1.0 mph /  1.6 km/h 4.0 mph /  6.4 km/h 97 % 0.00 in /  0 mm
07:20 70.4 °F /  21.3 °C 69.8 °F /  21 °C 29.82 in /  1009.7 hPa NE 1.7 mph /  2.7 km/h 4.0 mph /  6.4 km/h 98 % 0.00 in /  0 mm
07:25 70.4 °F /  21.3 °C 69.8 °F /  21 °C 29.82 in /  1009.7 hPa NE 1.6 mph /  2.6 km/h 3.0 mph /  4.8 km/h 98 % 0.00 in /  0 mm
07:30 70.4 °F /  21.3 °C 69.8 °F /  21 °C 29.82 in /  1009.7 hPa NE 2.0 mph /  3.2 km/h 7.0 mph /  11.3 km/h 98 % 0.00 in /  0 mm
07:35 70.4 °F /  21.3 °C 69.8 °F /  21 °C 29.82 in /  1009.7 hPa NNE 2.6 mph /  4.2 km/h 3.5 mph /  5.6 km/h 98 % 0.00 in /  0 mm
07:40 70.4 °F /  21.3 °C 69.8 °F /  21 °C 29.82 in /  1009.7 hPa NNE 1.0 mph /  1.6 km/h 5.0 mph /  8 km/h 98 % 0.00 in /  0 mm
07:46 70.4 °F /  21.3 °C 69.8 °F /  21 °C 29.82 in /  1009.7 hPa NE 1.0 mph /  1.6 km/h 4.0 mph /  6.4 km/h 98 % 0.00 in /  0 mm
07:50 70.3 °F /  21.3 °C 69.4 °F /  20.8 °C 29.82 in /  1009.7 hPa ENE 1.0 mph /  1.6 km/h 5.0 mph /  8 km/h 97 % 0.00 in /  0 mm
07:56 70.3 °F /  21.3 °C 69.4 °F /  20.8 °C 29.82 in /  1009.7 hPa NE 1.0 mph /  1.6 km/h 4.0 mph /  6.4 km/h 97 % 0.00 in /  0 mm
08:01 70.3 °F /  21.3 °C 69.4 °F /  20.8 °C 29.82 in /  1009.7 hPa NNE 0.4 mph /  0.6 km/h 4.6 mph /  7.4 km/h 97 % 0.00 in /  0 mm
08:06 70.3 °F /  21.3 °C 69.4 °F /  20.8 °C 29.82 in /  1009.7 hPa NE 1.8 mph /  2.9 km/h 3.5 mph /  5.6 km/h 97 % 0.00 in /  0 mm
08:11 70.2 °F /  21.2 °C 69.3 °F /  20.7 °C 29.82 in /  1009.7 hPa NE 1.4 mph /  2.3 km/h 3.5 mph /  5.6 km/h 97 % 0.00 in /  0 mm
08:16 70.2 °F /  21.2 °C 69.3 °F /  20.7 °C 29.82 in /  1009.7 hPa ENE 2.2 mph /  3.5 km/h 3.5 mph /  5.6 km/h 97 % 0.00 in /  0 mm
08:21 70.2 °F /  21.2 °C 69.3 °F /  20.7 °C 29.82 in /  1009.7 hPa ENE 1.8 mph /  2.9 km/h 3.5 mph /  5.6 km/h 97 % 0.00 in /  0 mm
08:26 70.2 °F /  21.2 °C 69.3 °F /  20.7 °C 29.81 in /  1009.4 hPa NE 0.3 mph /  0.5 km/h 3.5 mph /  5.6 km/h 97 % 0.00 in /  0 mm
08:31 70.2 °F /  21.2 °C 69.3 °F /  20.7 °C 29.81 in /  1009.4 hPa NE 2.3 mph /  3.7 km/h 5.0 mph /  8 km/h 97 % 0.00 in /  0 mm
08:36 70.2 °F /  21.2 °C 69.3 °F /  20.7 °C 29.82 in /  1009.7 hPa NE 1.0 mph /  1.6 km/h 3.5 mph /  5.6 km/h 97 % 0.00 in /  0 mm
08:41 70.3 °F /  21.3 °C 69.4 °F /  20.8 °C 29.82 in /  1009.7 hPa NE 0.1 mph /  0.2 km/h 1.2 mph /  1.9 km/h 97 % 0.00 in /  0 mm
08:46 70.3 °F /  21.3 °C 69.4 °F /  20.8 °C 29.82 in /  1009.7 hPa NE 1.8 mph /  2.9 km/h 6.9 mph /  11.1 km/h 97 % 0.00 in /  0 mm
08:51 70.4 °F /  21.3 °C 69.5 °F /  20.8 °C 29.82 in /  1009.7 hPa NE 1.3 mph /  2.1 km/h 3.5 mph /  5.6 km/h 97 % 0.00 in /  0 mm
08:56 70.4 °F /  21.3 °C 69.5 °F /  20.8 °C 29.82 in /  1009.7 hPa NE 1.7 mph /  2.7 km/h 8.1 mph /  13 km/h 97 % 0.00 in /  0 mm
09:02 70.5 °F /  21.4 °C 69.6 °F /  20.9 °C 29.82 in /  1009.7 hPa NE 2.3 mph /  3.7 km/h 3.5 mph /  5.6 km/h 97 % 0.00 in /  0 mm
09:07 70.5 °F /  21.4 °C 69.6 °F /  20.9 °C 29.82 in /  1009.7 hPa NE 1.8 mph /  2.9 km/h 3.5 mph /  5.6 km/h 97 % 0.00 in /  0 mm
09:12 70.6 °F /  21.4 °C 69.7 °F /  20.9 °C 29.82 in /  1009.7 hPa ENE 0.8 mph /  1.3 km/h 2.3 mph /  3.7 km/h 97 % 0.00 in /  0 mm
09:17 70.6 °F /  21.4 °C 69.7 °F /  20.9 °C 29.82 in /  1009.7 hPa NE 1.3 mph /  2.1 km/h 5.0 mph /  8 km/h 97 % 0.00 in /  0 mm
09:22 70.7 °F /  21.5 °C 69.8 °F /  21 °C 29.82 in /  1009.7 hPa ENE 2.2 mph /  3.5 km/h 5.8 mph /  9.3 km/h 97 % 0.00 in /  0 mm
09:27 70.7 °F /  21.5 °C 69.8 °F /  21 °C 29.82 in /  1009.7 hPa NE 0.2 mph /  0.3 km/h 1.2 mph /  1.9 km/h 97 % 0.00 in /  0 mm
09:32 70.8 °F /  21.6 °C 69.9 °F /  21.1 °C 29.82 in /  1009.7 hPa NE 2.9 mph /  4.7 km/h 4.6 mph /  7.4 km/h 97 % 0.00 in /  0 mm
09:37 70.8 °F /  21.6 °C 69.9 °F /  21.1 °C 29.82 in /  1009.7 hPa ENE 1.3 mph /  2.1 km/h 3.5 mph /  5.6 km/h 97 % 0.00 in /  0 mm
09:42 71.0 °F /  21.7 °C 70.1 °F /  21.2 °C 29.82 in /  1009.7 hPa ENE 1.3 mph /  2.1 km/h 4.6 mph /  7.4 km/h 97 % 0.00 in /  0 mm
09:47 71.0 °F /  21.7 °C 70.1 °F /  21.2 °C 29.82 in /  1009.7 hPa East 0.6 mph /  1 km/h 3.0 mph /  4.8 km/h 97 % 0.00 in /  0 mm
09:52 71.1 °F /  21.7 °C 70.2 °F /  21.2 °C 29.82 in /  1009.7 hPa NE 0.1 mph /  0.2 km/h 1.0 mph /  1.6 km/h 97 % 0.00 in /  0 mm
09:57 71.2 °F /  21.8 °C 70.3 °F /  21.3 °C 29.81 in /  1009.4 hPa ENE 0.7 mph /  1.1 km/h 3.5 mph /  5.6 km/h 97 % 0.00 in /  0 mm
09:58 71.2 °F /  21.8 °C 70.3 °F /  21.3 °C 29.81 in /  1009.4 hPa ENE 0.3 mph /  0.5 km/h 2.3 mph /  3.7 km/h 97 % 0.00 in /  0 mm
10:03 71.4 °F /  21.9 °C 70.5 °F /  21.4 °C 29.81 in /  1009.4 hPa ENE 0.3 mph /  0.5 km/h 1.2 mph /  1.9 km/h 97 % 0.00 in /  0 mm
10:08 71.5 °F /  21.9 °C 70.6 °F /  21.4 °C 29.81 in /  1009.4 hPa NE 0.9 mph /  1.4 km/h 3.5 mph /  5.6 km/h 97 % 0.00 in /  0 mm
10:13 71.6 °F /  22 °C 70.7 °F /  21.5 °C 29.81 in /  1009.4 hPa NE 1.4 mph /  2.3 km/h 3.0 mph /  4.8 km/h 97 % 0.00 in /  0 mm
10:18 71.7 °F /  22.1 °C 70.5 °F /  21.4 °C 29.81 in /  1009.4 hPa Calm   1.2 mph /  1.9 km/h 96 % 0.00 in /  0 mm
10:23 71.9 °F /  22.2 °C 70.7 °F /  21.5 °C 29.80 in /  1009 hPa NE 1.6 mph /  2.6 km/h 3.5 mph /  5.6 km/h 96 % 0.00 in /  0 mm
10:28 72.1 °F /  22.3 °C 70.9 °F /  21.6 °C 29.80 in /  1009 hPa NE 1.3 mph /  2.1 km/h 3.0 mph /  4.8 km/h 96 % 0.00 in /  0 mm
10:33 72.2 °F /  22.3 °C 71.0 °F /  21.7 °C 29.80 in /  1009 hPa ENE 0.7 mph /  1.1 km/h 2.0 mph /  3.2 km/h 96 % 0.00 in /  0 mm
10:38 72.3 °F /  22.4 °C 71.1 °F /  21.7 °C 29.80 in /  1009 hPa NE 1.2 mph /  1.9 km/h 2.3 mph /  3.7 km/h 96 % 0.00 in /  0 mm
10:43 72.4 °F /  22.4 °C 71.2 °F /  21.8 °C 29.80 in /  1009 hPa ENE 2.4 mph /  3.9 km/h 4.6 mph /  7.4 km/h 96 % 0.00 in /  0 mm
10:48 72.5 °F /  22.5 °C 71.0 °F /  21.7 °C 29.80 in /  1009 hPa ENE 0.1 mph /  0.2 km/h 4.6 mph /  7.4 km/h 95 % 0.00 in /  0 mm
10:53 72.6 °F /  22.6 °C 71.1 °F /  21.7 °C 29.80 in /  1009 hPa ENE 1.2 mph /  1.9 km/h 2.3 mph /  3.7 km/h 95 % 0.00 in /  0 mm
10:58 72.7 °F /  22.6 °C 71.2 °F /  21.8 °C 29.80 in /  1009 hPa ENE 0.1 mph /  0.2 km/h 1.2 mph /  1.9 km/h 95 % 0.00 in /  0 mm
11:03 72.9 °F /  22.7 °C 71.4 °F /  21.9 °C 29.80 in /  1009 hPa Calm   1.2 mph /  1.9 km/h 95 % 0.00 in /  0 mm
11:08 73.1 °F /  22.8 °C 71.6 °F /  22 °C 29.80 in /  1009 hPa NE 0.2 mph /  0.3 km/h 1.2 mph /  1.9 km/h 95 % 0.00 in /  0 mm
11:13 73.2 °F /  22.9 °C 71.7 °F /  22.1 °C 29.80 in /  1009 hPa NE 0.4 mph /  0.6 km/h 2.3 mph /  3.7 km/h 95 % 0.00 in /  0 mm
11:18 73.4 °F /  23 °C 71.9 °F /  22.2 °C 29.80 in /  1009 hPa NE 0.1 mph /  0.2 km/h 1.2 mph /  1.9 km/h 95 % 0.00 in /  0 mm
11:23 73.6 °F /  23.1 °C 72.1 °F /  22.3 °C 29.80 in /  1009 hPa NE 0.2 mph /  0.3 km/h 1.2 mph /  1.9 km/h 95 % 0.00 in /  0 mm
11:28 73.8 °F /  23.2 °C 72.3 °F /  22.4 °C 29.80 in /  1009 hPa NE 0.7 mph /  1.1 km/h 1.2 mph /  1.9 km/h 95 % 0.00 in /  0 mm
11:33 74.0 °F /  23.3 °C 72.2 °F /  22.3 °C 29.80 in /  1009 hPa NE 0.2 mph /  0.3 km/h 1.2 mph /  1.9 km/h 94 % 0.00 in /  0 mm
11:39 74.3 °F /  23.5 °C 72.5 °F /  22.5 °C 29.80 in /  1009 hPa NE 0.1 mph /  0.2 km/h 1.2 mph /  1.9 km/h 94 % 0.00 in /  0 mm
11:44 74.6 °F /  23.7 °C 72.8 °F /  22.7 °C 29.80 in /  1009 hPa NE 0.6 mph /  1 km/h 2.3 mph /  3.7 km/h 94 % 0.00 in /  0 mm
11:49 74.7 °F /  23.7 °C 72.5 °F /  22.5 °C 29.80 in /  1009 hPa East 1.5 mph /  2.4 km/h 3.5 mph /  5.6 km/h 93 % 0.00 in /  0 mm
11:54 74.8 °F /  23.8 °C 72.3 °F /  22.4 °C 29.79 in /  1008.7 hPa NE 1.6 mph /  2.6 km/h 5.0 mph /  8 km/h 92 % 0.00 in /  0 mm
11:59 75.0 °F /  23.9 °C 72.5 °F /  22.5 °C 29.79 in /  1008.7 hPa Calm     92 % 0.00 in /  0 mm
12:04 75.4 °F /  24.1 °C 72.9 °F /  22.7 °C 29.79 in /  1008.7 hPa ENE 0.6 mph /  1 km/h 2.3 mph /  3.7 km/h 92 % 0.00 in /  0 mm
12:09 75.6 °F /  24.2 °C 72.8 °F /  22.7 °C 29.78 in /  1008.4 hPa NE 2.9 mph /  4.7 km/h 4.6 mph /  7.4 km/h 91 % 0.00 in /  0 mm
12:14 75.9 °F /  24.4 °C 73.1 °F /  22.8 °C 29.78 in /  1008.4 hPa North 0.5 mph /  0.8 km/h 3.5 mph /  5.6 km/h 91 % 0.00 in /  0 mm
12:19 76.3 °F /  24.6 °C 73.1 °F /  22.8 °C 29.78 in /  1008.4 hPa ENE 1.2 mph /  1.9 km/h 3.5 mph /  5.6 km/h 90 % 0.00 in /  0 mm
12:24 76.6 °F /  24.8 °C 73.1 °F /  22.8 °C 29.78 in /  1008.4 hPa ENE 1.9 mph /  3.1 km/h 3.5 mph /  5.6 km/h 89 % 0.00 in /  0 mm
12:29 76.7 °F /  24.8 °C 72.9 °F /  22.7 °C 29.78 in /  1008.4 hPa NE 0.8 mph /  1.3 km/h 2.0 mph /  3.2 km/h 88 % 0.00 in /  0 mm
12:34 76.8 °F /  24.9 °C 73.0 °F /  22.8 °C 29.77 in /  1008 hPa ENE 1.4 mph /  2.3 km/h 3.0 mph /  4.8 km/h 88 % 0.00 in /  0 mm
12:39 76.9 °F /  24.9 °C 73.1 °F /  22.8 °C 29.77 in /  1008 hPa NE 1.5 mph /  2.4 km/h 4.6 mph /  7.4 km/h 88 % 0.00 in /  0 mm
12:44 77.0 °F /  25 °C 72.8 °F /  22.7 °C 29.77 in /  1008 hPa NE 0.5 mph /  0.8 km/h 2.3 mph /  3.7 km/h 87 % 0.00 in /  0 mm
12:49 77.1 °F /  25.1 °C 72.9 °F /  22.7 °C 29.77 in /  1008 hPa ENE 2.1 mph /  3.4 km/h 4.6 mph /  7.4 km/h 87 % 0.00 in /  0 mm
12:54 77.5 °F /  25.3 °C 73.7 °F /  23.2 °C 29.77 in /  1008 hPa ENE 3.9 mph /  6.3 km/h 8.1 mph /  13 km/h 88 % 0.00 in /  0 mm
12:59 77.4 °F /  25.2 °C 72.9 °F /  22.7 °C 29.76 in /  1007.7 hPa NE 2.5 mph /  4 km/h 3.5 mph /  5.6 km/h 86 % 0.00 in /  0 mm
13:04 77.4 °F /  25.2 °C 73.2 °F /  22.9 °C 29.77 in /  1008 hPa ENE 1.3 mph /  2.1 km/h 3.5 mph /  5.6 km/h 87 % 0.00 in /  0 mm
13:09 77.4 °F /  25.2 °C 73.2 °F /  22.9 °C 29.76 in /  1007.7 hPa ENE 0.7 mph /  1.1 km/h 3.5 mph /  5.6 km/h 87 % 0.00 in /  0 mm
13:14 77.6 °F /  25.3 °C 73.4 °F /  23 °C 29.76 in /  1007.7 hPa NNE 3.2 mph /  5.1 km/h 5.8 mph /  9.3 km/h 87 % 0.00 in /  0 mm
13:19 77.8 °F /  25.4 °C 73.6 °F /  23.1 °C 29.76 in /  1007.7 hPa NNE 2.1 mph /  3.4 km/h 5.8 mph /  9.3 km/h 87 % 0.00 in /  0 mm
13:24 77.8 °F /  25.4 °C 73.3 °F /  22.9 °C 29.75 in /  1007.3 hPa NNW 2.5 mph /  4 km/h 5.0 mph /  8 km/h 86 % 0.00 in /  0 mm
13:29 77.8 °F /  25.4 °C 73.3 °F /  22.9 °C 29.75 in /  1007.3 hPa NNE 4.6 mph /  7.4 km/h 6.9 mph /  11.1 km/h 86 % 0.00 in /  0 mm
13:34 77.8 °F /  25.4 °C 73.3 °F /  22.9 °C 29.75 in /  1007.3 hPa ENE 1.5 mph /  2.4 km/h 4.0 mph /  6.4 km/h 86 % 0.00 in /  0 mm
13:39 77.8 °F /  25.4 °C 72.9 °F /  22.7 °C 29.76 in /  1007.7 hPa North 1.1 mph /  1.8 km/h 3.5 mph /  5.6 km/h 85 % 0.00 in /  0 mm
13:44 77.7 °F /  25.4 °C 73.2 °F /  22.9 °C 29.75 in /  1007.3 hPa NNE 2.4 mph /  3.9 km/h 6.9 mph /  11.1 km/h 86 % 0.00 in /  0 mm
13:49 77.7 °F /  25.4 °C 73.2 °F /  22.9 °C 29.75 in /  1007.3 hPa NE 1.1 mph /  1.8 km/h 3.5 mph /  5.6 km/h 86 % 0.00 in /  0 mm
13:54 77.6 °F /  25.3 °C 72.7 °F /  22.6 °C 29.75 in /  1007.3 hPa ENE 3.0 mph /  4.8 km/h 6.9 mph /  11.1 km/h 85 % 0.00 in /  0 mm
13:59 77.4 °F /  25.2 °C 72.5 °F /  22.5 °C 29.74 in /  1007 hPa ENE 1.6 mph /  2.6 km/h 3.5 mph /  5.6 km/h 85 % 0.00 in /  0 mm
14:04 77.2 °F /  25.1 °C 72.7 °F /  22.6 °C 29.75 in /  1007.3 hPa ENE 0.8 mph /  1.3 km/h 4.6 mph /  7.4 km/h 86 % 0.00 in /  0 mm
14:09 77.2 °F /  25.1 °C 73.0 °F /  22.8 °C 29.75 in /  1007.3 hPa ENE 1.3 mph /  2.1 km/h 3.0 mph /  4.8 km/h 87 % 0.00 in /  0 mm
14:14 77.1 °F /  25.1 °C 72.9 °F /  22.7 °C 29.74 in /  1007 hPa ENE 0.6 mph /  1 km/h 2.3 mph /  3.7 km/h 87 % 0.00 in /  0 mm
14:19 77.2 °F /  25.1 °C 73.4 °F /  23 °C 29.74 in /  1007 hPa NE 0.1 mph /  0.2 km/h 1.2 mph /  1.9 km/h 88 % 0.00 in /  0 mm
14:24 77.4 °F /  25.2 °C 73.6 °F /  23.1 °C 29.74 in /  1007 hPa NE 0.2 mph /  0.3 km/h   88 % 0.00 in /  0 mm
14:29 77.7 °F /  25.4 °C 73.9 °F /  23.3 °C 29.74 in /  1007 hPa ENE 1.4 mph /  2.3 km/h 4.0 mph /  6.4 km/h 88 % 0.00 in /  0 mm
14:34 78.0 °F /  25.6 °C 73.8 °F /  23.2 °C 29.73 in /  1006.7 hPa NE 2.2 mph /  3.5 km/h 3.5 mph /  5.6 km/h 87 % 0.00 in /  0 mm
14:38 78.2 °F /  25.7 °C 74.0 °F /  23.3 °C 29.73 in /  1006.7 hPa NE 0.6 mph /  1 km/h 2.3 mph /  3.7 km/h 87 % 0.00 in /  0 mm
14:43 78.5 °F /  25.8 °C 74.0 °F /  23.3 °C 29.73 in /  1006.7 hPa NE 1.4 mph /  2.3 km/h 3.5 mph /  5.6 km/h 86 % 0.00 in /  0 mm
14:48 78.6 °F /  25.9 °C 73.7 °F /  23.2 °C 29.73 in /  1006.7 hPa NE 0.5 mph /  0.8 km/h 2.3 mph /  3.7 km/h 85 % 0.00 in /  0 mm
14:53 78.7 °F /  25.9 °C 74.2 °F /  23.4 °C 29.73 in /  1006.7 hPa NE 0.2 mph /  0.3 km/h 1.2 mph /  1.9 km/h 86 % 0.00 in /  0 mm
14:58 78.9 °F /  26.1 °C 74.0 °F /  23.3 °C 29.72 in /  1006.3 hPa ENE 1.1 mph /  1.8 km/h 2.3 mph /  3.7 km/h 85 % 0.00 in /  0 mm
15:03 79.1 °F /  26.2 °C 74.2 °F /  23.4 °C 29.72 in /  1006.3 hPa ENE 0.6 mph /  1 km/h 2.3 mph /  3.7 km/h 85 % 0.00 in /  0 mm
15:08 79.2 °F /  26.2 °C 73.9 °F /  23.3 °C 29.71 in /  1006 hPa ENE 1.5 mph /  2.4 km/h 3.5 mph /  5.6 km/h 84 % 0.00 in /  0 mm
15:13 79.3 °F /  26.3 °C 74.4 °F /  23.6 °C 29.71 in /  1006 hPa ENE 2.2 mph /  3.5 km/h 3.5 mph /  5.6 km/h 85 % 0.00 in /  0 mm
15:18 79.4 °F /  26.3 °C 74.1 °F /  23.4 °C 29.71 in /  1006 hPa ENE 0.4 mph /  0.6 km/h 3.5 mph /  5.6 km/h 84 % 0.00 in /  0 mm
15:23 79.4 °F /  26.3 °C 74.1 °F /  23.4 °C 29.71 in /  1006 hPa NE 0.5 mph /  0.8 km/h 3.5 mph /  5.6 km/h 84 % 0.00 in /  0 mm
15:28 79.5 °F /  26.4 °C 74.6 °F /  23.7 °C 29.71 in /  1006 hPa ENE 1.8 mph /  2.9 km/h 3.0 mph /  4.8 km/h 85 % 0.00 in /  0 mm
15:33 79.6 °F /  26.4 °C 74.3 °F /  23.5 °C 29.70 in /  1005.6 hPa NE 0.9 mph /  1.4 km/h 3.5 mph /  5.6 km/h 84 % 0.00 in /  0 mm
15:38 79.5 °F /  26.4 °C 74.2 °F /  23.4 °C 29.70 in /  1005.6 hPa NE 0.8 mph /  1.3 km/h 1.2 mph /  1.9 km/h 84 % 0.00 in /  0 mm
15:43 79.6 °F /  26.4 °C 74.3 °F /  23.5 °C 29.70 in /  1005.6 hPa NE 1.6 mph /  2.6 km/h 3.5 mph /  5.6 km/h 84 % 0.00 in /  0 mm
15:48 79.4 °F /  26.3 °C 74.1 °F /  23.4 °C 29.70 in /  1005.6 hPa North 2.1 mph /  3.4 km/h 3.5 mph /  5.6 km/h 84 % 0.00 in /  0 mm
15:53 79.4 °F /  26.3 °C 74.1 °F /  23.4 °C 29.70 in /  1005.6 hPa East 2.6 mph /  4.2 km/h 3.5 mph /  5.6 km/h 84 % 0.00 in /  0 mm
15:58 79.2 °F /  26.2 °C 73.9 °F /  23.3 °C 29.70 in /  1005.6 hPa ENE 3.1 mph /  5 km/h 6.9 mph /  11.1 km/h 84 % 0.00 in /  0 mm
16:03 78.9 °F /  26.1 °C 73.7 °F /  23.2 °C 29.70 in /  1005.6 hPa NE 1.4 mph /  2.3 km/h 3.5 mph /  5.6 km/h 84 % 0.00 in /  0 mm
16:09 78.8 °F /  26 °C 74.3 °F /  23.5 °C 29.70 in /  1005.6 hPa NE 1.0 mph /  1.6 km/h 3.5 mph /  5.6 km/h 86 % 0.00 in /  0 mm
16:14 78.5 °F /  25.8 °C 74.0 °F /  23.3 °C 29.70 in /  1005.6 hPa NE 0.8 mph /  1.3 km/h 3.5 mph /  5.6 km/h 86 % 0.00 in /  0 mm
16:19 78.4 °F /  25.8 °C 73.9 °F /  23.3 °C 29.70 in /  1005.6 hPa ENE 3.4 mph /  5.5 km/h 8.1 mph /  13 km/h 86 % 0.00 in /  0 mm
16:24 78.2 °F /  25.7 °C 73.7 °F /  23.2 °C 29.70 in /  1005.6 hPa NE 1.5 mph /  2.4 km/h 3.5 mph /  5.6 km/h 86 % 0.00 in /  0 mm
16:29 78.0 °F /  25.6 °C 73.8 °F /  23.2 °C 29.70 in /  1005.6 hPa Calm   1.2 mph /  1.9 km/h 87 % 0.00 in /  0 mm
16:34 77.8 °F /  25.4 °C 74.0 °F /  23.3 °C 29.70 in /  1005.6 hPa NE 1.0 mph /  1.6 km/h 3.5 mph /  5.6 km/h 88 % 0.00 in /  0 mm
16:39 77.6 °F /  25.3 °C 73.8 °F /  23.2 °C 29.69 in /  1005.3 hPa Calm   1.2 mph /  1.9 km/h 88 % 0.00 in /  0 mm
16:44 77.5 °F /  25.3 °C 73.7 °F /  23.2 °C 29.70 in /  1005.6 hPa ENE 1.4 mph /  2.3 km/h 3.5 mph /  5.6 km/h 88 % 0.00 in /  0 mm
16:49 77.3 °F /  25.2 °C 73.5 °F /  23.1 °C 29.69 in /  1005.3 hPa ENE 0.4 mph /  0.6 km/h 2.3 mph /  3.7 km/h 88 % 0.00 in /  0 mm
16:54 77.3 °F /  25.2 °C 73.8 °F /  23.2 °C 29.70 in /  1005.6 hPa ENE 0.3 mph /  0.5 km/h 1.2 mph /  1.9 km/h 89 % 0.00 in /  0 mm
16:59 77.1 °F /  25.1 °C 73.6 °F /  23.1 °C 29.69 in /  1005.3 hPa ENE 0.1 mph /  0.2 km/h 1.0 mph /  1.6 km/h 89 % 0.00 in /  0 mm
17:04 77.1 °F /  25.1 °C 73.6 °F /  23.1 °C 29.69 in /  1005.3 hPa ENE 0.3 mph /  0.5 km/h 1.2 mph /  1.9 km/h 89 % 0.00 in /  0 mm
17:09 77.0 °F /  25 °C 73.5 °F /  23.1 °C 29.70 in /  1005.6 hPa SE 0.3 mph /  0.5 km/h 1.2 mph /  1.9 km/h 89 % 0.00 in /  0 mm
17:14 76.9 °F /  24.9 °C 73.7 °F /  23.2 °C 29.70 in /  1005.6 hPa NE 0.9 mph /  1.4 km/h 2.3 mph /  3.7 km/h 90 % 0.00 in /  0 mm
17:19 76.8 °F /  24.9 °C 73.6 °F /  23.1 °C 29.70 in /  1005.6 hPa NE 0.5 mph /  0.8 km/h 2.3 mph /  3.7 km/h 90 % 0.00 in /  0 mm
17:24 76.7 °F /  24.8 °C 73.5 °F /  23.1 °C 29.70 in /  1005.6 hPa NE 0.8 mph /  1.3 km/h 2.3 mph /  3.7 km/h 90 % 0.00 in /  0 mm
17:29 76.6 °F /  24.8 °C 73.4 °F /  23 °C 29.69 in /  1005.3 hPa NE 0.8 mph /  1.3 km/h 1.2 mph /  1.9 km/h 90 % 0.00 in /  0 mm
17:34 76.6 °F /  24.8 °C 73.4 °F /  23 °C 29.69 in /  1005.3 hPa NE 0.7 mph /  1.1 km/h 3.5 mph /  5.6 km/h 90 % 0.00 in /  0 mm
17:39 76.5 °F /  24.7 °C 73.7 °F /  23.2 °C 29.69 in /  1005.3 hPa NE 0.4 mph /  0.6 km/h 1.2 mph /  1.9 km/h 91 % 0.00 in /  0 mm
17:44 76.4 °F /  24.7 °C 73.6 °F /  23.1 °C 29.69 in /  1005.3 hPa Calm   1.2 mph /  1.9 km/h 91 % 0.00 in /  0 mm
17:49 76.3 °F /  24.6 °C 73.5 °F /  23.1 °C 29.69 in /  1005.3 hPa NE 0.1 mph /  0.2 km/h 2.3 mph /  3.7 km/h 91 % 0.00 in /  0 mm
17:54 76.2 °F /  24.6 °C 73.4 °F /  23 °C 29.69 in /  1005.3 hPa NE 0.1 mph /  0.2 km/h 1.2 mph /  1.9 km/h 91 % 0.00 in /  0 mm
18:00 76.1 °F /  24.5 °C 73.3 °F /  22.9 °C 29.69 in /  1005.3 hPa Calm     91 % 0.00 in /  0 mm
18:05 76.1 °F /  24.5 °C 73.3 °F /  22.9 °C 29.69 in /  1005.3 hPa Calm     91 % 0.00 in /  0 mm
18:10 76.0 °F /  24.4 °C 73.2 °F /  22.9 °C 29.69 in /  1005.3 hPa NE 0.2 mph /  0.3 km/h 1.2 mph /  1.9 km/h 91 % 0.00 in /  0 mm
18:15 75.9 °F /  24.4 °C 73.4 °F /  23 °C 29.68 in /  1005 hPa NE 0.1 mph /  0.2 km/h 1.2 mph /  1.9 km/h 92 % 0.00 in /  0 mm
18:20 75.8 °F /  24.3 °C 73.3 °F /  22.9 °C 29.68 in /  1005 hPa Calm     92 % 0.00 in /  0 mm
18:25 75.7 °F /  24.3 °C 73.2 °F /  22.9 °C 29.68 in /  1005 hPa NE 0.2 mph /  0.3 km/h 2.0 mph /  3.2 km/h 92 % 0.00 in /  0 mm
18:30 75.6 °F /  24.2 °C 73.1 °F /  22.8 °C 29.68 in /  1005 hPa NE 0.1 mph /  0.2 km/h 1.2 mph /  1.9 km/h 92 % 0.00 in /  0 mm
18:35 75.5 °F /  24.2 °C 73.0 °F /  22.8 °C 29.68 in /  1005 hPa Calm   1.2 mph /  1.9 km/h 92 % 0.00 in /  0 mm
18:40 75.5 °F /  24.2 °C 73.0 °F /  22.8 °C 29.68 in /  1005 hPa Calm     92 % 0.00 in /  0 mm
18:45 75.3 °F /  24.1 °C 73.1 °F /  22.8 °C 29.68 in /  1005 hPa Calm   1.2 mph /  1.9 km/h 93 % 0.00 in /  0 mm
18:50 75.3 °F /  24.1 °C 73.1 °F /  22.8 °C 29.68 in /  1005 hPa NE 0.1 mph /  0.2 km/h 1.2 mph /  1.9 km/h 93 % 0.00 in /  0 mm
18:55 75.2 °F /  24 °C 73.0 °F /  22.8 °C 29.68 in /  1005 hPa Calm     93 % 0.00 in /  0 mm
19:00 75.1 °F /  23.9 °C 72.9 °F /  22.7 °C 29.68 in /  1005 hPa Calm   1.2 mph /  1.9 km/h 93 % 0.00 in /  0 mm
19:05 75.0 °F /  23.9 °C 72.8 °F /  22.7 °C 29.68 in /  1005 hPa Calm     93 % 0.00 in /  0 mm
19:10 74.8 °F /  23.8 °C 72.6 °F /  22.6 °C 29.68 in /  1005 hPa Calm     93 % 0.00 in /  0 mm
19:15 74.8 °F /  23.8 °C 72.6 °F /  22.6 °C 29.68 in /  1005 hPa NE 0.5 mph /  0.8 km/h 3.5 mph /  5.6 km/h 93 % 0.00 in /  0 mm
19:20 74.7 °F /  23.7 °C 72.9 °F /  22.7 °C 29.68 in /  1005 hPa NE 0.5 mph /  0.8 km/h 1.2 mph /  1.9 km/h 94 % 0.00 in /  0 mm
19:25 74.6 °F /  23.7 °C 72.8 °F /  22.7 °C 29.67 in /  1004.6 hPa NE 0.6 mph /  1 km/h 3.5 mph /  5.6 km/h 94 % 0.00 in /  0 mm
19:30 74.6 °F /  23.7 °C 72.8 °F /  22.7 °C 29.68 in /  1005 hPa Calm     94 % 0.00 in /  0 mm
19:35 74.5 °F /  23.6 °C 72.7 °F /  22.6 °C 29.67 in /  1004.6 hPa Calm     94 % 0.00 in /  0 mm
19:40 74.4 °F /  23.6 °C 72.6 °F /  22.6 °C 29.67 in /  1004.6 hPa Calm     94 % 0.00 in /  0 mm
19:45 74.4 °F /  23.6 °C 72.6 °F /  22.6 °C 29.67 in /  1004.6 hPa Calm     94 % 0.00 in /  0 mm
19:50 74.3 °F /  23.5 °C 72.5 °F /  22.5 °C 29.68 in /  1005 hPa Calm     94 % 0.00 in /  0 mm
19:55 74.2 °F /  23.4 °C 72.4 °F /  22.4 °C 29.68 in /  1005 hPa Calm     94 % 0.00 in /  0 mm
20:00 74.2 °F /  23.4 °C 72.4 °F /  22.4 °C 29.68 in /  1005 hPa Calm     94 % 0.00 in /  0 mm
20:05 74.1 °F /  23.4 °C 72.3 °F /  22.4 °C 29.68 in /  1005 hPa Calm     94 % 0.00 in /  0 mm
20:10 74.0 °F /  23.3 °C 72.5 °F /  22.5 °C 29.68 in /  1005 hPa Calm   1.2 mph /  1.9 km/h 95 % 0.00 in /  0 mm
20:15 74.0 °F /  23.3 °C 72.2 °F /  22.3 °C 29.68 in /  1005 hPa Calm     94 % 0.00 in /  0 mm
20:20 74.0 °F /  23.3 °C 72.5 °F /  22.5 °C 29.68 in /  1005 hPa Calm     95 % 0.00 in /  0 mm
20:26 73.9 °F /  23.3 °C 72.4 °F /  22.4 °C 29.68 in /  1005 hPa Calm     95 % 0.00 in /  0 mm
20:31 73.8 °F /  23.2 °C 72.3 °F /  22.4 °C 29.68 in /  1005 hPa Calm     95 % 0.00 in /  0 mm
20:36 73.7 °F /  23.2 °C 72.2 °F /  22.3 °C 29.68 in /  1005 hPa Calm     95 % 0.00 in /  0 mm
20:41 73.7 °F /  23.2 °C 72.2 °F /  22.3 °C 29.68 in /  1005 hPa Calm     95 % 0.00 in /  0 mm
20:46 73.6 °F /  23.1 °C 72.1 °F /  22.3 °C 29.68 in /  1005 hPa Calm     95 % 0.00 in /  0 mm
20:51 73.5 °F /  23.1 °C 72.0 °F /  22.2 °C 29.69 in /  1005.3 hPa Calm     95 % 0.00 in /  0 mm
20:56 73.5 °F /  23.1 °C 72.0 °F /  22.2 °C 29.68 in /  1005 hPa Calm   1.0 mph /  1.6 km/h 95 % 0.00 in /  0 mm
21:01 73.4 °F /  23 °C 71.9 °F /  22.2 °C 29.68 in /  1005 hPa Calm     95 % 0.00 in /  0 mm
21:06 73.3 °F /  22.9 °C 71.8 °F /  22.1 °C 29.68 in /  1005 hPa NE 0.2 mph /  0.3 km/h 1.0 mph /  1.6 km/h 95 % 0.00 in /  0 mm
21:11 73.3 °F /  22.9 °C 71.8 °F /  22.1 °C 29.68 in /  1005 hPa Calm     95 % 0.00 in /  0 mm
21:16 73.3 °F /  22.9 °C 71.8 °F /  22.1 °C 29.67 in /  1004.6 hPa Calm     95 % 0.00 in /  0 mm
21:21 73.2 °F /  22.9 °C 71.7 °F /  22.1 °C 29.67 in /  1004.6 hPa Calm     95 % 0.00 in /  0 mm
21:26 73.2 °F /  22.9 °C 71.7 °F /  22.1 °C 29.68 in /  1005 hPa Calm     95 % 0.00 in /  0 mm
21:31 73.1 °F /  22.8 °C 71.6 °F /  22 °C 29.67 in /  1004.6 hPa Calm     95 % 0.00 in /  0 mm
21:36 73.1 °F /  22.8 °C 71.6 °F /  22 °C 29.67 in /  1004.6 hPa Calm     95 % 0.00 in /  0 mm
21:41 73.0 °F /  22.8 °C 71.5 °F /  21.9 °C 29.67 in /  1004.6 hPa Calm   1.2 mph /  1.9 km/h 95 % 0.00 in /  0 mm
21:46 73.0 °F /  22.8 °C 71.5 °F /  21.9 °C 29.67 in /  1004.6 hPa Calm     95 % 0.00 in /  0 mm
21:51 73.0 °F /  22.8 °C 71.8 °F /  22.1 °C 29.67 in /  1004.6 hPa Calm     96 % 0.00 in /  0 mm
21:56 73.0 °F /  22.8 °C 71.8 °F /  22.1 °C 29.67 in /  1004.6 hPa Calm     96 % 0.00 in /  0 mm
22:01 72.9 °F /  22.7 °C 71.7 °F /  22.1 °C 29.67 in /  1004.6 hPa Calm     96 % 0.00 in /  0 mm
22:06 72.9 °F /  22.7 °C 71.7 °F /  22.1 °C 29.67 in /  1004.6 hPa Calm     96 % 0.00 in /  0 mm
22:11 72.9 °F /  22.7 °C 71.7 °F /  22.1 °C 29.67 in /  1004.6 hPa Calm     96 % 0.00 in /  0 mm
22:16 72.9 °F /  22.7 °C 71.7 °F /  22.1 °C 29.67 in /  1004.6 hPa Calm     96 % 0.00 in /  0 mm
22:21 72.8 °F /  22.7 °C 71.6 °F /  22 °C 29.67 in /  1004.6 hPa Calm     96 % 0.00 in /  0 mm
22:26 72.8 °F /  22.7 °C 71.6 °F /  22 °C 29.67 in /  1004.6 hPa Calm     96 % 0.00 in /  0 mm
22:31 72.9 °F /  22.7 °C 71.7 °F /  22.1 °C 29.66 in /  1004.3 hPa Calm     96 % 0.00 in /  0 mm
22:36 72.9 °F /  22.7 °C 71.7 °F /  22.1 °C 29.66 in /  1004.3 hPa Calm     96 % 0.00 in /  0 mm
22:41 72.9 °F /  22.7 °C 71.7 °F /  22.1 °C 29.66 in /  1004.3 hPa Calm     96 % 0.00 in /  0 mm
22:46 72.9 °F /  22.7 °C 71.7 °F /  22.1 °C 29.65 in /  1003.9 hPa Calm     96 % 0.00 in /  0 mm
22:51 72.9 °F /  22.7 °C 71.7 °F /  22.1 °C 29.65 in /  1003.9 hPa Calm     96 % 0.00 in /  0 mm
22:56 72.9 °F /  22.7 °C 71.7 °F /  22.1 °C 29.66 in /  1004.3 hPa Calm   1.2 mph /  1.9 km/h 96 % 0.00 in /  0 mm
23:01 72.9 °F /  22.7 °C 71.7 °F /  22.1 °C 29.65 in /  1003.9 hPa Calm     96 % 0.00 in /  0 mm
23:06 72.9 °F /  22.7 °C 71.7 °F /  22.1 °C 29.65 in /  1003.9 hPa Calm     96 % 0.00 in /  0 mm
23:12 72.9 °F /  22.7 °C 71.7 °F /  22.1 °C 29.65 in /  1003.9 hPa Calm   1.2 mph /  1.9 km/h 96 % 0.00 in /  0 mm
23:16 72.9 °F /  22.7 °C 71.7 °F /  22.1 °C 29.65 in /  1003.9 hPa Calm     96 % 0.00 in /  0 mm
23:21 72.8 °F /  22.7 °C 71.6 °F /  22 °C 29.65 in /  1003.9 hPa NE 0.4 mph /  0.6 km/h 2.3 mph /  3.7 km/h 96 % 0.00 in /  0 mm
23:27 72.9 °F /  22.7 °C 71.7 °F /  22.1 °C 29.65 in /  1003.9 hPa NNE 1.5 mph /  2.4 km/h 3.5 mph /  5.6 km/h 96 % 0.00 in /  0 mm
23:32 72.9 °F /  22.7 °C 71.7 °F /  22.1 °C 29.64 in /  1003.6 hPa NNE 0.5 mph /  0.8 km/h 1.2 mph /  1.9 km/h 96 % 0.00 in /  0 mm
23:37 73.0 °F /  22.8 °C 71.8 °F /  22.1 °C 29.64 in /  1003.6 hPa ENE 0.6 mph /  1 km/h 2.3 mph /  3.7 km/h 96 % 0.00 in /  0 mm
23:42 73.0 °F /  22.8 °C 72.1 °F /  22.3 °C 29.64 in /  1003.6 hPa ENE 0.1 mph /  0.2 km/h 1.2 mph /  1.9 km/h 97 % 0.00 in /  0 mm
23:47 73.0 °F /  22.8 °C 72.1 °F /  22.3 °C 29.64 in /  1003.6 hPa ENE 0.5 mph /  0.8 km/h 2.3 mph /  3.7 km/h 97 % 0.00 in /  0 mm
23:52 73.0 °F /  22.8 °C 72.1 °F /  22.3 °C 29.64 in /  1003.6 hPa ENE 0.1 mph /  0.2 km/h 1.2 mph /  1.9 km/h 97 % 0.00 in /  0 mm
23:57 73.1 °F /  22.8 °C 72.2 °F /  22.3 °C 29.63 in /  1003.3 hPa Calm     97 % 0.00 in /  0 mm
Crab Meadow Weather
Compliments of Weather Underground - 3 mb

Script developed by  Jim McMurry - jmcmurry@mwt.net Adapted for the template by  Wim van der Kuil - Leuven-Template.eu

Weather Terms: Dense Fog Advisory - Widespread dense fog reducing visibility to less than 1/4 mile.